sensor_id;sensor_type;location;lat;lon;timestamp;temperature;humidity
45785;DHT22;31489;51.404;5.474;2023-04-08T00:00:19;12.90;73.10
45785;DHT22;31489;51.404;5.474;2023-04-08T00:02:44;12.90;73.00
45785;DHT22;31489;51.404;5.474;2023-04-08T00:05:10;12.90;73.20
45785;DHT22;31489;51.404;5.474;2023-04-08T00:07:36;12.90;73.10
45785;DHT22;31489;51.404;5.474;2023-04-08T00:10:02;12.90;73.30
45785;DHT22;31489;51.404;5.474;2023-04-08T00:12:28;12.90;73.30
45785;DHT22;31489;51.404;5.474;2023-04-08T00:14:53;12.90;73.30
45785;DHT22;31489;51.404;5.474;2023-04-08T00:17:19;12.90;73.40
45785;DHT22;31489;51.404;5.474;2023-04-08T00:19:45;12.90;73.40
45785;DHT22;31489;51.404;5.474;2023-04-08T00:22:11;12.90;73.50
45785;DHT22;31489;51.404;5.474;2023-04-08T00:24:36;13.00;73.30
45785;DHT22;31489;51.404;5.474;2023-04-08T00:27:02;13.00;73.40
45785;DHT22;31489;51.404;5.474;2023-04-08T00:29:28;13.00;73.30
45785;DHT22;31489;51.404;5.474;2023-04-08T00:31:54;13.00;73.20
45785;DHT22;31489;51.404;5.474;2023-04-08T00:34:20;13.00;73.20
45785;DHT22;31489;51.404;5.474;2023-04-08T00:36:45;13.00;73.20
45785;DHT22;31489;51.404;5.474;2023-04-08T00:39:14;13.00;73.20
45785;DHT22;31489;51.404;5.474;2023-04-08T00:41:39;13.00;73.50
45785;DHT22;31489;51.404;5.474;2023-04-08T00:44:05;13.00;73.40
45785;DHT22;31489;51.404;5.474;2023-04-08T00:46:35;12.90;73.50
45785;DHT22;31489;51.404;5.474;2023-04-08T00:49:01;13.00;73.70
45785;DHT22;31489;51.404;5.474;2023-04-08T00:51:30;13.00;73.60
45785;DHT22;31489;51.404;5.474;2023-04-08T00:53:56;13.00;73.50
45785;DHT22;31489;51.404;5.474;2023-04-08T00:56:23;13.00;73.60
45785;DHT22;31489;51.404;5.474;2023-04-08T00:58:49;13.00;73.50
45785;DHT22;31489;51.404;5.474;2023-04-08T01:01:25;13.00;73.50
45785;DHT22;31489;51.404;5.474;2023-04-08T01:03:56;13.00;73.30
45785;DHT22;31489;51.404;5.474;2023-04-08T01:09:35;13.00;73.40
45785;DHT22;31489;51.404;5.474;2023-04-08T01:12:05;12.90;73.20
45785;DHT22;31489;51.404;5.474;2023-04-08T01:14:34;12.90;73.10
45785;DHT22;31489;51.404;5.474;2023-04-08T01:17:03;12.90;73.10
45785;DHT22;31489;51.404;5.474;2023-04-08T01:19:34;12.90;73.30
45785;DHT22;31489;51.404;5.474;2023-04-08T01:22:22;12.90;73.40
45785;DHT22;31489;51.404;5.474;2023-04-08T01:24:58;12.90;73.40
45785;DHT22;31489;51.404;5.474;2023-04-08T01:27:27;12.90;73.60
45785;DHT22;31489;51.404;5.474;2023-04-08T01:29:56;12.90;73.60
45785;DHT22;31489;51.404;5.474;2023-04-08T01:32:22;12.90;73.70
45785;DHT22;31489;51.404;5.474;2023-04-08T01:34:50;12.90;73.60
45785;DHT22;31489;51.404;5.474;2023-04-08T01:37:16;12.90;73.60
45785;DHT22;31489;51.404;5.474;2023-04-08T01:39:43;12.90;73.60
45785;DHT22;31489;51.404;5.474;2023-04-08T01:42:09;12.90;73.70
45785;DHT22;31489;51.404;5.474;2023-04-08T01:44:36;12.90;73.90
45785;DHT22;31489;51.404;5.474;2023-04-08T01:47:02;12.90;73.70
45785;DHT22;31489;51.404;5.474;2023-04-08T01:49:28;12.90;73.70
45785;DHT22;31489;51.404;5.474;2023-04-08T01:51:56;12.80;73.70
45785;DHT22;31489;51.404;5.474;2023-04-08T01:54:23;12.90;73.80
45785;DHT22;31489;51.404;5.474;2023-04-08T01:56:50;12.90;74.00
45785;DHT22;31489;51.404;5.474;2023-04-08T01:59:20;12.90;74.00
45785;DHT22;31489;51.404;5.474;2023-04-08T02:01:47;12.90;73.90
45785;DHT22;31489;51.404;5.474;2023-04-08T02:04:14;12.80;73.90
45785;DHT22;31489;51.404;5.474;2023-04-08T02:06:40;12.80;74.10
45785;DHT22;31489;51.404;5.474;2023-04-08T02:09:06;12.80;74.30
45785;DHT22;31489;51.404;5.474;2023-04-08T02:11:32;12.80;74.30
45785;DHT22;31489;51.404;5.474;2023-04-08T02:13:58;12.80;74.40
45785;DHT22;31489;51.404;5.474;2023-04-08T02:16:52;12.80;74.60
45785;DHT22;31489;51.404;5.474;2023-04-08T02:19:28;12.80;74.80
45785;DHT22;31489;51.404;5.474;2023-04-08T02:21:59;12.80;75.00
45785;DHT22;31489;51.404;5.474;2023-04-08T02:24:28;12.70;75.10
45785;DHT22;31489;51.404;5.474;2023-04-08T02:26:55;12.70;75.10
45785;DHT22;31489;51.404;5.474;2023-04-08T02:29:21;12.70;75.20
45785;DHT22;31489;51.404;5.474;2023-04-08T02:31:49;12.70;75.00
45785;DHT22;31489;51.404;5.474;2023-04-08T02:34:16;12.70;74.90
45785;DHT22;31489;51.404;5.474;2023-04-08T02:36:42;12.70;74.90
45785;DHT22;31489;51.404;5.474;2023-04-08T02:39:10;12.60;75.10
45785;DHT22;31489;51.404;5.474;2023-04-08T02:41:36;12.60;75.10
45785;DHT22;31489;51.404;5.474;2023-04-08T02:44:01;12.60;75.20
45785;DHT22;31489;51.404;5.474;2023-04-08T02:46:27;12.60;75.40
45785;DHT22;31489;51.404;5.474;2023-04-08T02:48:52;12.50;75.60
45785;DHT22;31489;51.404;5.474;2023-04-08T02:51:20;12.50;75.90
45785;DHT22;31489;51.404;5.474;2023-04-08T02:53:46;12.50;76.10
45785;DHT22;31489;51.404;5.474;2023-04-08T02:56:12;12.50;76.20
45785;DHT22;31489;51.404;5.474;2023-04-08T02:58:37;12.50;76.20
45785;DHT22;31489;51.404;5.474;2023-04-08T03:01:03;12.50;76.20
45785;DHT22;31489;51.404;5.474;2023-04-08T03:03:29;12.60;76.30
45785;DHT22;31489;51.404;5.474;2023-04-08T03:05:56;12.60;76.40
45785;DHT22;31489;51.404;5.474;2023-04-08T03:08:22;12.60;76.50
45785;DHT22;31489;51.404;5.474;2023-04-08T03:10:48;12.60;76.50
45785;DHT22;31489;51.404;5.474;2023-04-08T03:13:14;12.60;76.60
45785;DHT22;31489;51.404;5.474;2023-04-08T03:15:40;12.60;76.70
45785;DHT22;31489;51.404;5.474;2023-04-08T03:18:06;12.60;76.70
45785;DHT22;31489;51.404;5.474;2023-04-08T03:20:32;12.60;76.70
45785;DHT22;31489;51.404;5.474;2023-04-08T03:22:57;12.60;76.80
45785;DHT22;31489;51.404;5.474;2023-04-08T03:25:23;12.60;76.90
45785;DHT22;31489;51.404;5.474;2023-04-08T03:27:49;12.60;77.60
45785;DHT22;31489;51.404;5.474;2023-04-08T03:30:15;12.60;76.90
45785;DHT22;31489;51.404;5.474;2023-04-08T03:32:41;12.60;76.90
45785;DHT22;31489;51.404;5.474;2023-04-08T03:35:07;12.60;76.90
45785;DHT22;31489;51.404;5.474;2023-04-08T03:37:32;12.70;77.00
45785;DHT22;31489;51.404;5.474;2023-04-08T03:40:01;12.60;77.00
45785;DHT22;31489;51.404;5.474;2023-04-08T03:42:27;12.70;77.10
45785;DHT22;31489;51.404;5.474;2023-04-08T03:44:52;12.70;77.10
45785;DHT22;31489;51.404;5.474;2023-04-08T03:47:18;12.60;77.30
45785;DHT22;31489;51.404;5.474;2023-04-08T03:49:44;12.60;77.30
45785;DHT22;31489;51.404;5.474;2023-04-08T03:52:09;12.60;77.30
45785;DHT22;31489;51.404;5.474;2023-04-08T03:54:35;12.70;78.00
45785;DHT22;31489;51.404;5.474;2023-04-08T03:57:01;12.60;77.40
45785;DHT22;31489;51.404;5.474;2023-04-08T03:59:26;12.60;77.30
45785;DHT22;31489;51.404;5.474;2023-04-08T04:01:52;12.60;77.40
45785;DHT22;31489;51.404;5.474;2023-04-08T04:04:18;12.60;77.30
45785;DHT22;31489;51.404;5.474;2023-04-08T04:06:43;12.60;77.20
45785;DHT22;31489;51.404;5.474;2023-04-08T04:09:09;12.60;77.30
45785;DHT22;31489;51.404;5.474;2023-04-08T04:11:36;12.60;77.30
45785;DHT22;31489;51.404;5.474;2023-04-08T04:14:01;12.60;77.30
45785;DHT22;31489;51.404;5.474;2023-04-08T04:16:27;12.60;77.40
45785;DHT22;31489;51.404;5.474;2023-04-08T04:18:53;12.60;77.50
45785;DHT22;31489;51.404;5.474;2023-04-08T04:21:18;12.60;77.60
45785;DHT22;31489;51.404;5.474;2023-04-08T04:23:44;12.60;77.60
45785;DHT22;31489;51.404;5.474;2023-04-08T04:26:10;12.60;77.60
45785;DHT22;31489;51.404;5.474;2023-04-08T04:28:36;12.60;77.70
45785;DHT22;31489;51.404;5.474;2023-04-08T04:31:02;12.50;77.70
45785;DHT22;31489;51.404;5.474;2023-04-08T04:33:28;12.60;77.90
45785;DHT22;31489;51.404;5.474;2023-04-08T04:35:54;12.60;77.70
45785;DHT22;31489;51.404;5.474;2023-04-08T04:38:20;12.60;77.60
45785;DHT22;31489;51.404;5.474;2023-04-08T04:40:46;12.50;77.80
45785;DHT22;31489;51.404;5.474;2023-04-08T04:43:11;12.50;77.80
45785;DHT22;31489;51.404;5.474;2023-04-08T04:45:37;12.50;77.80
45785;DHT22;31489;51.404;5.474;2023-04-08T04:48:03;12.50;77.70
45785;DHT22;31489;51.404;5.474;2023-04-08T04:50:29;12.50;77.60
45785;DHT22;31489;51.404;5.474;2023-04-08T04:52:54;12.50;77.50
45785;DHT22;31489;51.404;5.474;2023-04-08T04:55:20;12.50;77.50
45785;DHT22;31489;51.404;5.474;2023-04-08T04:57:47;12.40;77.80
45785;DHT22;31489;51.404;5.474;2023-04-08T05:00:13;12.40;78.10
45785;DHT22;31489;51.404;5.474;2023-04-08T05:02:39;12.40;78.30
45785;DHT22;31489;51.404;5.474;2023-04-08T05:05:05;12.40;78.40
45785;DHT22;31489;51.404;5.474;2023-04-08T05:07:35;12.40;78.40
45785;DHT22;31489;51.404;5.474;2023-04-08T05:10:01;12.50;78.50
45785;DHT22;31489;51.404;5.474;2023-04-08T05:12:27;12.50;78.50
45785;DHT22;31489;51.404;5.474;2023-04-08T05:14:53;12.50;78.50
45785;DHT22;31489;51.404;5.474;2023-04-08T05:17:19;12.50;78.60
45785;DHT22;31489;51.404;5.474;2023-04-08T05:19:44;12.50;78.70
45785;DHT22;31489;51.404;5.474;2023-04-08T05:22:10;12.50;78.70
45785;DHT22;31489;51.404;5.474;2023-04-08T05:24:36;12.50;78.70
45785;DHT22;31489;51.404;5.474;2023-04-08T05:27:01;12.60;78.70
45785;DHT22;31489;51.404;5.474;2023-04-08T05:29:27;12.60;78.70
45785;DHT22;31489;51.404;5.474;2023-04-08T05:31:53;12.60;78.60
45785;DHT22;31489;51.404;5.474;2023-04-08T05:34:18;12.60;78.70
45785;DHT22;31489;51.404;5.474;2023-04-08T05:36:48;12.60;78.60
45785;DHT22;31489;51.404;5.474;2023-04-08T05:39:19;12.60;78.40
45785;DHT22;31489;51.404;5.474;2023-04-08T05:41:45;12.60;78.50
45785;DHT22;31489;51.404;5.474;2023-04-08T05:44:11;12.60;78.70
45785;DHT22;31489;51.404;5.474;2023-04-08T05:46:38;12.60;78.80
45785;DHT22;31489;51.404;5.474;2023-04-08T05:49:03;12.60;78.80
45785;DHT22;31489;51.404;5.474;2023-04-08T05:51:29;12.60;78.90
45785;DHT22;31489;51.404;5.474;2023-04-08T05:53:55;12.60;79.50
45785;DHT22;31489;51.404;5.474;2023-04-08T05:56:20;12.60;78.80
45785;DHT22;31489;51.404;5.474;2023-04-08T05:58:46;12.70;79.00
45785;DHT22;31489;51.404;5.474;2023-04-08T06:01:12;12.70;79.20
45785;DHT22;31489;51.404;5.474;2023-04-08T06:03:37;12.70;79.40
45785;DHT22;31489;51.404;5.474;2023-04-08T06:06:03;12.70;79.50
45785;DHT22;31489;51.404;5.474;2023-04-08T06:08:29;12.70;79.30
45785;DHT22;31489;51.404;5.474;2023-04-08T06:10:54;12.80;79.30
45785;DHT22;31489;51.404;5.474;2023-04-08T06:13:20;12.80;79.30
45785;DHT22;31489;51.404;5.474;2023-04-08T06:15:46;12.80;79.10
45785;DHT22;31489;51.404;5.474;2023-04-08T06:18:14;12.90;79.10
45785;DHT22;31489;51.404;5.474;2023-04-08T06:20:40;12.90;79.00
45785;DHT22;31489;51.404;5.474;2023-04-08T06:23:06;12.90;79.10
45785;DHT22;31489;51.404;5.474;2023-04-08T06:25:31;13.00;79.20
45785;DHT22;31489;51.404;5.474;2023-04-08T06:27:57;13.00;79.00
45785;DHT22;31489;51.404;5.474;2023-04-08T06:30:23;13.00;79.20
45785;DHT22;31489;51.404;5.474;2023-04-08T06:32:48;13.00;79.00
45785;DHT22;31489;51.404;5.474;2023-04-08T06:35:14;13.10;79.20
45785;DHT22;31489;51.404;5.474;2023-04-08T06:37:40;13.10;79.30
45785;DHT22;31489;51.404;5.474;2023-04-08T06:40:06;13.10;79.20
45785;DHT22;31489;51.404;5.474;2023-04-08T06:42:31;13.10;79.00
45785;DHT22;31489;51.404;5.474;2023-04-08T06:44:57;13.10;79.00
45785;DHT22;31489;51.404;5.474;2023-04-08T06:47:23;13.10;78.90
45785;DHT22;31489;51.404;5.474;2023-04-08T06:49:49;13.20;78.70
45785;DHT22;31489;51.404;5.474;2023-04-08T06:52:14;13.20;78.60
45785;DHT22;31489;51.404;5.474;2023-04-08T06:54:40;13.20;78.80
45785;DHT22;31489;51.404;5.474;2023-04-08T06:57:05;13.30;78.80
45785;DHT22;31489;51.404;5.474;2023-04-08T06:59:31;13.30;78.70
45785;DHT22;31489;51.404;5.474;2023-04-08T07:01:57;13.30;78.90
45785;DHT22;31489;51.404;5.474;2023-04-08T07:04:22;13.40;78.50
45785;DHT22;31489;51.404;5.474;2023-04-08T07:06:48;13.40;78.50
45785;DHT22;31489;51.404;5.474;2023-04-08T07:09:14;13.40;78.30
45785;DHT22;31489;51.404;5.474;2023-04-08T07:11:40;13.40;78.30
45785;DHT22;31489;51.404;5.474;2023-04-08T07:14:05;13.50;78.80
45785;DHT22;31489;51.404;5.474;2023-04-08T07:16:31;13.50;77.80
45785;DHT22;31489;51.404;5.474;2023-04-08T07:18:56;13.50;77.90
45785;DHT22;31489;51.404;5.474;2023-04-08T07:21:22;13.60;77.90
45785;DHT22;31489;51.404;5.474;2023-04-08T07:23:48;13.60;77.30
45785;DHT22;31489;51.404;5.474;2023-04-08T07:26:13;13.60;76.80
45785;DHT22;31489;51.404;5.474;2023-04-08T07:28:39;13.60;76.40
45785;DHT22;31489;51.404;5.474;2023-04-08T07:31:13;13.60;76.60
45785;DHT22;31489;51.404;5.474;2023-04-08T07:33:39;13.60;76.70
45785;DHT22;31489;51.404;5.474;2023-04-08T07:36:05;13.60;76.90
45785;DHT22;31489;51.404;5.474;2023-04-08T07:38:31;13.60;77.10
45785;DHT22;31489;51.404;5.474;2023-04-08T07:40:56;13.60;77.20
45785;DHT22;31489;51.404;5.474;2023-04-08T07:43:22;13.60;76.90
45785;DHT22;31489;51.404;5.474;2023-04-08T07:45:47;13.70;76.90
45785;DHT22;31489;51.404;5.474;2023-04-08T07:48:13;13.70;77.00
45785;DHT22;31489;51.404;5.474;2023-04-08T07:50:39;13.70;76.30
45785;DHT22;31489;51.404;5.474;2023-04-08T07:53:04;13.70;76.40
45785;DHT22;31489;51.404;5.474;2023-04-08T07:55:33;13.70;76.10
45785;DHT22;31489;51.404;5.474;2023-04-08T07:57:59;13.70;76.00
45785;DHT22;31489;51.404;5.474;2023-04-08T08:00:26;13.70;76.20
45785;DHT22;31489;51.404;5.474;2023-04-08T08:02:51;13.80;76.30
45785;DHT22;31489;51.404;5.474;2023-04-08T08:05:17;13.80;76.20
45785;DHT22;31489;51.404;5.474;2023-04-08T08:07:43;13.70;75.70
45785;DHT22;31489;51.404;5.474;2023-04-08T08:10:09;13.80;75.50
45785;DHT22;31489;51.404;5.474;2023-04-08T08:12:35;13.80;75.20
45785;DHT22;31489;51.404;5.474;2023-04-08T08:15:01;13.80;74.80
45785;DHT22;31489;51.404;5.474;2023-04-08T08:17:27;13.80;74.80
45785;DHT22;31489;51.404;5.474;2023-04-08T08:19:55;13.80;74.50
45785;DHT22;31489;51.404;5.474;2023-04-08T08:22:21;13.80;74.80
45785;DHT22;31489;51.404;5.474;2023-04-08T08:24:47;13.80;74.80
45785;DHT22;31489;51.404;5.474;2023-04-08T08:27:12;13.70;74.70
45785;DHT22;31489;51.404;5.474;2023-04-08T08:29:38;13.80;74.90
45785;DHT22;31489;51.404;5.474;2023-04-08T08:32:04;13.80;75.10
45785;DHT22;31489;51.404;5.474;2023-04-08T08:34:30;13.80;74.70
45785;DHT22;31489;51.404;5.474;2023-04-08T08:36:56;13.80;74.30
45785;DHT22;31489;51.404;5.474;2023-04-08T08:39:21;13.80;74.30
45785;DHT22;31489;51.404;5.474;2023-04-08T08:41:47;13.70;74.40
45785;DHT22;31489;51.404;5.474;2023-04-08T08:44:13;13.80;74.20
45785;DHT22;31489;51.404;5.474;2023-04-08T08:46:46;13.80;74.20
45785;DHT22;31489;51.404;5.474;2023-04-08T08:49:12;13.80;74.20
45785;DHT22;31489;51.404;5.474;2023-04-08T08:51:39;13.80;74.60
45785;DHT22;31489;51.404;5.474;2023-04-08T08:54:05;13.80;74.50
45785;DHT22;31489;51.404;5.474;2023-04-08T08:56:34;13.70;74.80
45785;DHT22;31489;51.404;5.474;2023-04-08T08:59:00;13.80;74.30
45785;DHT22;31489;51.404;5.474;2023-04-08T09:01:36;13.80;74.50
45785;DHT22;31489;51.404;5.474;2023-04-08T09:04:16;13.80;74.60
45785;DHT22;31489;51.404;5.474;2023-04-08T09:06:47;13.80;74.80
45785;DHT22;31489;51.404;5.474;2023-04-08T09:09:14;13.90;74.70
45785;DHT22;31489;51.404;5.474;2023-04-08T09:11:44;13.90;74.60
45785;DHT22;31489;51.404;5.474;2023-04-08T09:14:36;13.90;74.50
45785;DHT22;31489;51.404;5.474;2023-04-08T09:17:02;14.00;74.20
45785;DHT22;31489;51.404;5.474;2023-04-08T09:19:28;14.00;74.70
45785;DHT22;31489;51.404;5.474;2023-04-08T09:22:10;14.00;74.40
45785;DHT22;31489;51.404;5.474;2023-04-08T09:24:36;14.10;73.80
45785;DHT22;31489;51.404;5.474;2023-04-08T09:27:03;14.10;73.70
45785;DHT22;31489;51.404;5.474;2023-04-08T09:29:29;14.20;73.70
45785;DHT22;31489;51.404;5.474;2023-04-08T09:32:00;14.10;73.10
45785;DHT22;31489;51.404;5.474;2023-04-08T09:34:27;14.20;72.90
45785;DHT22;31489;51.404;5.474;2023-04-08T09:36:54;14.20;73.20
45785;DHT22;31489;51.404;5.474;2023-04-08T09:39:20;14.20;73.60
45785;DHT22;31489;51.404;5.474;2023-04-08T09:41:50;14.20;73.70
45785;DHT22;31489;51.404;5.474;2023-04-08T09:44:18;14.20;73.70
45785;DHT22;31489;51.404;5.474;2023-04-08T09:47:09;14.20;74.40
45785;DHT22;31489;51.404;5.474;2023-04-08T09:49:45;14.20;73.10
45785;DHT22;31489;51.404;5.474;2023-04-08T09:52:19;14.30;73.40
45785;DHT22;31489;51.404;5.474;2023-04-08T09:55:02;14.30;73.50
45785;DHT22;31489;51.404;5.474;2023-04-08T09:57:43;14.30;73.10
45785;DHT22;31489;51.404;5.474;2023-04-08T10:00:14;14.40;73.50
45785;DHT22;31489;51.404;5.474;2023-04-08T10:05:12;14.40;73.20
45785;DHT22;31489;51.404;5.474;2023-04-08T10:07:40;14.50;73.50
45785;DHT22;31489;51.404;5.474;2023-04-08T10:10:07;14.50;73.60
45785;DHT22;31489;51.404;5.474;2023-04-08T10:12:35;14.60;73.60
45785;DHT22;31489;51.404;5.474;2023-04-08T10:17:52;14.70;72.80
45785;DHT22;31489;51.404;5.474;2023-04-08T10:22:59;15.00;73.10
45785;DHT22;31489;51.404;5.474;2023-04-08T10:30:48;15.30;71.70
45785;DHT22;31489;51.404;5.474;2023-04-08T10:33:21;15.30;72.20
45785;DHT22;31489;51.404;5.474;2023-04-08T10:36:09;15.30;72.00
45785;DHT22;31489;51.404;5.474;2023-04-08T10:38:42;15.40;70.90
45785;DHT22;31489;51.404;5.474;2023-04-08T10:41:11;15.40;71.40
45785;DHT22;31489;51.404;5.474;2023-04-08T10:43:49;15.40;70.60
45785;DHT22;31489;51.404;5.474;2023-04-08T10:46:14;15.40;71.10
45785;DHT22;31489;51.404;5.474;2023-04-08T10:48:41;15.40;70.90
45785;DHT22;31489;51.404;5.474;2023-04-08T10:51:07;15.40;71.60
45785;DHT22;31489;51.404;5.474;2023-04-08T10:53:34;15.40;71.80
45785;DHT22;31489;51.404;5.474;2023-04-08T10:56:08;15.60;71.30
45785;DHT22;31489;51.404;5.474;2023-04-08T10:58:34;15.70;70.70
45785;DHT22;31489;51.404;5.474;2023-04-08T11:01:07;15.80;70.70
45785;DHT22;31489;51.404;5.474;2023-04-08T11:03:33;15.90;69.80
45785;DHT22;31489;51.404;5.474;2023-04-08T11:06:00;16.00;69.60
45785;DHT22;31489;51.404;5.474;2023-04-08T11:08:31;16.00;69.10
45785;DHT22;31489;51.404;5.474;2023-04-08T11:11:00;16.00;69.10
45785;DHT22;31489;51.404;5.474;2023-04-08T11:13:27;16.20;71.00
45785;DHT22;31489;51.404;5.474;2023-04-08T11:15:54;16.50;72.40
45785;DHT22;31489;51.404;5.474;2023-04-08T11:18:20;17.00;72.80
45785;DHT22;31489;51.404;5.474;2023-04-08T11:20:49;17.40;72.70
45785;DHT22;31489;51.404;5.474;2023-04-08T11:23:16;18.00;70.20
45785;DHT22;31489;51.404;5.474;2023-04-08T11:25:42;18.30;68.80
45785;DHT22;31489;51.404;5.474;2023-04-08T11:28:12;18.60;67.30
45785;DHT22;31489;51.404;5.474;2023-04-08T11:30:39;18.70;66.70
45785;DHT22;31489;51.404;5.474;2023-04-08T11:33:08;18.90;67.30
45785;DHT22;31489;51.404;5.474;2023-04-08T11:35:34;19.10;67.30
45785;DHT22;31489;51.404;5.474;2023-04-08T11:38:04;19.40;67.10
45785;DHT22;31489;51.404;5.474;2023-04-08T11:40:30;19.80;67.00
45785;DHT22;31489;51.404;5.474;2023-04-08T11:42:55;20.20;66.10
45785;DHT22;31489;51.404;5.474;2023-04-08T11:45:21;20.50;65.00
45785;DHT22;31489;51.404;5.474;2023-04-08T11:47:47;20.90;65.40
45785;DHT22;31489;51.404;5.474;2023-04-08T11:50:25;21.30;64.20
45785;DHT22;31489;51.404;5.474;2023-04-08T11:52:54;21.60;62.10
45785;DHT22;31489;51.404;5.474;2023-04-08T11:55:25;21.90;61.90
45785;DHT22;31489;51.404;5.474;2023-04-08T11:57:51;22.20;59.10
45785;DHT22;31489;51.404;5.474;2023-04-08T12:00:18;22.40;59.40
45785;DHT22;31489;51.404;5.474;2023-04-08T12:02:45;22.60;59.50
45785;DHT22;31489;51.404;5.474;2023-04-08T12:05:12;22.70;58.50
45785;DHT22;31489;51.404;5.474;2023-04-08T12:07:38;22.80;58.70
45785;DHT22;31489;51.404;5.474;2023-04-08T12:10:04;22.90;57.50
45785;DHT22;31489;51.404;5.474;2023-04-08T12:12:30;23.00;56.80
45785;DHT22;31489;51.404;5.474;2023-04-08T12:14:56;23.00;56.80
45785;DHT22;31489;51.404;5.474;2023-04-08T12:17:22;23.10;55.40
45785;DHT22;31489;51.404;5.474;2023-04-08T12:19:47;23.20;54.40
45785;DHT22;31489;51.404;5.474;2023-04-08T12:22:13;23.20;54.20
45785;DHT22;31489;51.404;5.474;2023-04-08T12:24:38;23.10;53.10
45785;DHT22;31489;51.404;5.474;2023-04-08T12:27:04;23.10;53.70
45785;DHT22;31489;51.404;5.474;2023-04-08T12:29:30;23.10;53.70
45785;DHT22;31489;51.404;5.474;2023-04-08T12:31:56;23.10;53.70
45785;DHT22;31489;51.404;5.474;2023-04-08T12:34:22;23.10;53.90
45785;DHT22;31489;51.404;5.474;2023-04-08T12:36:49;23.20;52.60
45785;DHT22;31489;51.404;5.474;2023-04-08T12:39:14;23.20;51.30
45785;DHT22;31489;51.404;5.474;2023-04-08T12:41:40;23.20;52.20
45785;DHT22;31489;51.404;5.474;2023-04-08T12:44:06;23.30;52.10
45785;DHT22;31489;51.404;5.474;2023-04-08T12:46:32;23.40;51.20
45785;DHT22;31489;51.404;5.474;2023-04-08T12:48:58;23.40;50.70
45785;DHT22;31489;51.404;5.474;2023-04-08T12:51:23;23.50;50.90
45785;DHT22;31489;51.404;5.474;2023-04-08T12:53:53;23.60;51.00
45785;DHT22;31489;51.404;5.474;2023-04-08T12:56:19;23.70;50.00
45785;DHT22;31489;51.404;5.474;2023-04-08T12:58:45;23.80;49.30
45785;DHT22;31489;51.404;5.474;2023-04-08T13:01:11;23.90;48.90
45785;DHT22;31489;51.404;5.474;2023-04-08T13:03:37;24.00;48.80
45785;DHT22;31489;51.404;5.474;2023-04-08T13:06:03;24.10;48.60
45785;DHT22;31489;51.404;5.474;2023-04-08T13:08:29;24.10;48.10
45785;DHT22;31489;51.404;5.474;2023-04-08T13:10:56;24.20;48.60
45785;DHT22;31489;51.404;5.474;2023-04-08T13:13:22;24.20;48.20
45785;DHT22;31489;51.404;5.474;2023-04-08T13:15:48;24.30;47.90
45785;DHT22;31489;51.404;5.474;2023-04-08T13:18:14;24.40;47.10
45785;DHT22;31489;51.404;5.474;2023-04-08T13:20:39;24.40;46.60
45785;DHT22;31489;51.404;5.474;2023-04-08T13:23:05;24.40;46.20
45785;DHT22;31489;51.404;5.474;2023-04-08T13:25:30;24.40;45.70
45785;DHT22;31489;51.404;5.474;2023-04-08T13:27:56;24.40;45.80
45785;DHT22;31489;51.404;5.474;2023-04-08T13:30:22;24.50;45.30
45785;DHT22;31489;51.404;5.474;2023-04-08T13:32:47;24.50;45.40
45785;DHT22;31489;51.404;5.474;2023-04-08T13:35:13;24.50;44.90
45785;DHT22;31489;51.404;5.474;2023-04-08T13:37:39;24.50;44.50
45785;DHT22;31489;51.404;5.474;2023-04-08T13:40:05;24.50;43.50
45785;DHT22;31489;51.404;5.474;2023-04-08T13:42:33;24.50;43.20
45785;DHT22;31489;51.404;5.474;2023-04-08T13:44:59;24.40;42.70
45785;DHT22;31489;51.404;5.474;2023-04-08T13:47:24;24.30;44.30
45785;DHT22;31489;51.404;5.474;2023-04-08T13:49:51;24.20;44.50
45785;DHT22;31489;51.404;5.474;2023-04-08T13:52:25;24.10;45.00
45785;DHT22;31489;51.404;5.474;2023-04-08T13:54:51;24.00;44.00
45785;DHT22;31489;51.404;5.474;2023-04-08T13:57:17;23.80;44.80
45785;DHT22;31489;51.404;5.474;2023-04-08T13:59:43;23.70;44.50
45785;DHT22;31489;51.404;5.474;2023-04-08T14:02:08;23.60;45.40
45785;DHT22;31489;51.404;5.474;2023-04-08T14:04:34;23.50;45.30
45785;DHT22;31489;51.404;5.474;2023-04-08T14:06:59;23.30;45.20
45785;DHT22;31489;51.404;5.474;2023-04-08T14:09:25;23.10;45.20
45785;DHT22;31489;51.404;5.474;2023-04-08T14:11:51;22.90;44.90
45785;DHT22;31489;51.404;5.474;2023-04-08T14:14:16;22.70;44.60
45785;DHT22;31489;51.404;5.474;2023-04-08T14:16:42;22.50;44.80
45785;DHT22;31489;51.404;5.474;2023-04-08T14:19:08;22.40;45.10
45785;DHT22;31489;51.404;5.474;2023-04-08T14:21:33;22.20;45.20
45785;DHT22;31489;51.404;5.474;2023-04-08T14:23:59;22.00;45.60
45785;DHT22;31489;51.404;5.474;2023-04-08T14:26:25;21.80;45.90
45785;DHT22;31489;51.404;5.474;2023-04-08T14:28:51;21.70;46.00
45785;DHT22;31489;51.404;5.474;2023-04-08T14:31:17;21.50;46.40
45785;DHT22;31489;51.404;5.474;2023-04-08T14:33:43;21.40;46.70
45785;DHT22;31489;51.404;5.474;2023-04-08T14:36:09;21.30;46.50
45785;DHT22;31489;51.404;5.474;2023-04-08T14:38:35;21.20;46.90
45785;DHT22;31489;51.404;5.474;2023-04-08T14:41:00;21.20;47.10
45785;DHT22;31489;51.404;5.474;2023-04-08T14:43:26;21.10;47.20
45785;DHT22;31489;51.404;5.474;2023-04-08T14:45:52;21.00;47.10
45785;DHT22;31489;51.404;5.474;2023-04-08T14:48:18;21.00;47.60
45785;DHT22;31489;51.404;5.474;2023-04-08T14:50:44;20.90;47.60
45785;DHT22;31489;51.404;5.474;2023-04-08T14:53:09;20.90;48.00
45785;DHT22;31489;51.404;5.474;2023-04-08T14:55:36;20.80;48.00
45785;DHT22;31489;51.404;5.474;2023-04-08T14:58:02;20.80;48.10
45785;DHT22;31489;51.404;5.474;2023-04-08T15:00:27;20.80;48.00
45785;DHT22;31489;51.404;5.474;2023-04-08T15:02:53;20.80;47.80
45785;DHT22;31489;51.404;5.474;2023-04-08T15:05:18;20.70;47.60
45785;DHT22;31489;51.404;5.474;2023-04-08T15:07:45;20.70;47.20
45785;DHT22;31489;51.404;5.474;2023-04-08T15:10:11;20.70;46.40
45785;DHT22;31489;51.404;5.474;2023-04-08T15:12:37;20.70;46.60
45785;DHT22;31489;51.404;5.474;2023-04-08T15:15:03;20.70;46.10
45785;DHT22;31489;51.404;5.474;2023-04-08T15:17:29;20.60;46.20
45785;DHT22;31489;51.404;5.474;2023-04-08T15:19:54;20.50;45.00
45785;DHT22;31489;51.404;5.474;2023-04-08T15:22:20;20.50;45.80
45785;DHT22;31489;51.404;5.474;2023-04-08T15:24:46;20.40;44.70
45785;DHT22;31489;51.404;5.474;2023-04-08T15:27:12;20.40;44.50
45785;DHT22;31489;51.404;5.474;2023-04-08T15:29:38;20.40;44.80
45785;DHT22;31489;51.404;5.474;2023-04-08T15:32:04;20.40;44.00
45785;DHT22;31489;51.404;5.474;2023-04-08T15:34:30;20.40;43.50
45785;DHT22;31489;51.404;5.474;2023-04-08T15:36:56;20.50;43.70
45785;DHT22;31489;51.404;5.474;2023-04-08T15:39:23;20.50;43.50
45785;DHT22;31489;51.404;5.474;2023-04-08T15:41:48;20.50;45.00
45785;DHT22;31489;51.404;5.474;2023-04-08T15:44:14;20.50;45.20